Time;durP1;ratioP1;P1;durP2;ratioP2;P2;SDS_P1;SDS_P2;PMS_P1;PMS_P2;Temp;Humidity;BMP_temperature;BMP_pressure;BME280_temperature;BME280_humidity;BME280_pressure;Samples;Min_cycle;Max_cycle;Signal;HPM_P1;HPM_P2
2022/07/30 00:02:15;;;;;;;2.55;1.73;;;25.00;48.70;;;;;;5031641;28;85736;-81
2022/07/30 00:04:41;;;;;;;2.15;1.67;;;25.00;48.60;;;;;;5029946;28;86743;-81
2022/07/30 00:07:07;;;;;;;2.50;1.70;;;25.00;48.70;;;;;;5028880;27;86357;-82
2022/07/30 00:09:32;;;;;;;1.63;1.35;;;25.00;48.70;;;;;;5030489;28;85755;-82
2022/07/30 00:11:58;;;;;;;1.70;1.60;;;25.00;48.50;;;;;;5030497;28;86160;-81
2022/07/30 00:14:25;;;;;;;1.98;1.55;;;25.00;48.70;;;;;;5030326;27;86960;-82
2022/07/30 00:16:51;;;;;;;2.20;1.67;;;25.00;48.70;;;;;;5032278;28;86964;-81
2022/07/30 00:19:16;;;;;;;1.95;1.50;;;25.00;49.50;;;;;;5033615;28;85730;-81
2022/07/30 00:21:42;;;;;;;2.38;1.40;;;25.00;49.00;;;;;;5029497;28;85693;-82
2022/07/30 00:24:07;;;;;;;1.60;1.40;;;25.00;48.80;;;;;;5031186;28;86239;-81
2022/07/30 00:26:33;;;;;;;3.00;1.60;;;24.90;48.80;;;;;;5031805;28;86118;-81
2022/07/30 00:28:59;;;;;;;2.03;1.63;;;25.00;48.80;;;;;;5030843;28;86230;-81
2022/07/30 00:31:25;;;;;;;2.33;1.70;;;25.00;48.80;;;;;;5032313;28;85846;-81
2022/07/30 00:33:50;;;;;;;1.83;1.50;;;25.00;48.90;;;;;;5029745;28;86317;-81
2022/07/30 00:36:16;;;;;;;1.80;1.50;;;25.00;48.90;;;;;;5030692;27;86823;-81
2022/07/30 00:38:42;;;;;;;2.15;1.45;;;25.00;48.90;;;;;;5030553;28;85594;-81
2022/07/30 00:41:07;;;;;;;1.90;1.50;;;24.90;48.70;;;;;;5030180;28;85846;-81
2022/07/30 00:43:34;;;;;;;2.55;1.75;;;25.00;48.90;;;;;;5031237;28;85971;-81
2022/07/30 00:45:59;;;;;;;1.83;1.70;;;24.90;48.80;;;;;;5031050;28;86803;-80
2022/07/30 00:48:25;;;;;;;1.90;1.60;;;24.90;49.00;;;;;;5028669;28;85792;-81
2022/07/30 00:50:51;;;;;;;2.92;1.77;;;24.90;49.70;;;;;;5030230;28;86027;-81
2022/07/30 00:53:16;;;;;;;3.67;1.60;;;24.90;49.20;;;;;;5029639;28;87004;-81
2022/07/30 00:55:42;;;;;;;1.65;1.55;;;24.90;49.20;;;;;;5030794;28;86233;-81
2022/07/30 00:58:07;;;;;;;1.40;1.30;;;24.90;49.20;;;;;;5030068;28;85550;-81
2022/07/30 01:00:33;;;;;;;1.63;1.52;;;24.90;49.10;;;;;;5029944;28;86892;-81
2022/07/30 01:02:59;;;;;;;2.33;1.70;;;24.90;49.00;;;;;;5031445;28;88228;-81
2022/07/30 01:05:24;;;;;;;2.13;1.60;;;24.90;49.10;;;;;;5031140;28;85850;-81
2022/07/30 01:07:51;;;;;;;2.53;1.52;;;24.90;49.10;;;;;;5029103;28;86189;-81
2022/07/30 01:10:17;;;;;;;1.75;1.55;;;24.90;49.20;;;;;;5028683;28;86294;-81
2022/07/30 01:12:44;;;;;;;2.33;1.55;;;24.90;49.20;;;;;;5031769;27;86969;-81
2022/07/30 01:15:10;;;;;;;1.75;1.55;;;24.90;49.20;;;;;;5028907;28;86102;-81
2022/07/30 01:17:37;;;;;;;1.85;1.52;;;24.80;49.10;;;;;;5032861;28;86486;-81
2022/07/30 01:20:09;;;;;;;1.60;1.50;;;24.80;49.20;;;;;;5029881;28;85710;-81
2022/07/30 01:22:38;;;;;;;2.55;1.50;;;24.80;49.10;;;;;;5027370;28;89327;-81
2022/07/30 01:25:21;;;;;;;2.20;1.50;;;24.80;49.20;;;;;;5029060;28;88729;-81
2022/07/30 01:27:51;;;;;;;2.00;1.50;;;24.90;49.30;;;;;;5030194;28;85831;-81
2022/07/30 01:30:22;;;;;;;1.90;1.50;;;24.80;49.20;;;;;;5028085;28;85611;-81
2022/07/30 01:32:49;;;;;;;1.65;1.40;;;24.80;49.20;;;;;;5032472;28;86698;-81
2022/07/30 01:35:17;;;;;;;2.05;1.50;;;24.80;49.20;;;;;;5029048;28;88511;-81
2022/07/30 01:37:45;;;;;;;1.73;1.63;;;24.80;49.20;;;;;;5028960;28;85701;-81
2022/07/30 01:40:11;;;;;;;3.22;1.92;;;24.80;49.30;;;;;;5029266;28;85599;-81
2022/07/30 01:42:39;;;;;;;2.47;1.77;;;24.80;49.30;;;;;;5029669;28;86630;-81
2022/07/30 01:45:07;;;;;;;2.00;1.80;;;24.80;49.40;;;;;;5031175;28;87027;-81
2022/07/30 01:47:35;;;;;;;2.40;1.23;;;24.80;49.40;;;;;;5030085;28;85934;-81
2022/07/30 01:50:05;;;;;;;1.67;1.40;;;24.80;49.40;;;;;;5033962;28;86079;-81
2022/07/30 01:52:32;;;;;;;3.88;1.80;;;24.80;49.50;;;;;;5032802;27;86190;-81
2022/07/30 01:55:00;;;;;;;1.98;1.70;;;24.80;49.40;;;;;;5031535;28;86717;-81
2022/07/30 01:57:27;;;;;;;1.75;1.40;;;24.80;49.60;;;;;;5033270;28;86013;-81
2022/07/30 02:00:00;;;;;;;1.67;1.58;;;24.80;49.50;;;;;;5032507;28;85672;-81
2022/07/30 02:02:26;;;;;;;2.20;1.63;;;24.70;49.40;;;;;;5031535;28;89357;-81
2022/07/30 02:04:52;;;;;;;1.55;1.45;;;24.80;49.50;;;;;;5032728;28;86858;-81
2022/07/30 02:07:34;;;;;;;1.58;1.40;;;24.80;49.70;;;;;;5033180;28;86271;-81
2022/07/30 02:10:08;;;;;;;1.70;1.52;;;24.80;49.70;;;;;;5033572;27;86759;-81
2022/07/30 02:12:38;;;;;;;2.50;1.75;;;24.70;49.50;;;;;;5033523;28;87681;-81
2022/07/30 02:15:30;;;;;;;2.97;1.40;;;24.80;49.40;;;;;;5033230;28;86740;-81
2022/07/30 02:18:06;;;;;;;1.65;1.55;;;24.70;49.60;;;;;;4990802;28;85808;-81
2022/07/30 02:20:33;;;;;;;2.55;1.85;;;24.70;49.60;;;;;;4989571;28;86394;-81
2022/07/30 02:23:05;;;;;;;2.00;1.40;;;24.70;49.60;;;;;;4990489;28;86844;-81
2022/07/30 02:25:34;;;;;;;1.45;1.35;;;24.70;49.70;;;;;;4990922;28;86887;-81
2022/07/30 02:28:08;;;;;;;1.60;1.48;;;24.70;49.70;;;;;;4990965;28;86236;-81
2022/07/30 02:30:39;;;;;;;1.30;1.20;;;24.70;49.70;;;;;;4990786;28;86371;-81
2022/07/30 02:33:09;;;;;;;2.03;1.70;;;24.70;49.70;;;;;;4989662;28;86956;-81
2022/07/30 02:35:36;;;;;;;1.63;1.48;;;24.70;49.70;;;;;;4990557;28;87002;-81
2022/07/30 02:38:03;;;;;;;1.30;1.20;;;24.70;49.70;;;;;;4987904;28;85840;-81
2022/07/30 02:40:28;;;;;;;1.65;1.48;;;24.70;49.80;;;;;;4986981;28;86229;-81
2022/07/30 02:42:55;;;;;;;1.40;1.30;;;24.70;49.80;;;;;;4987662;28;86540;-81
2022/07/30 02:45:23;;;;;;;2.05;1.50;;;24.70;49.90;;;;;;4989870;28;86894;-81
2022/07/30 02:47:54;;;;;;;2.97;1.35;;;24.70;49.80;;;;;;4987067;28;86720;-81
2022/07/30 02:50:23;;;;;;;1.50;1.40;;;24.70;49.90;;;;;;4988795;28;87398;-81
2022/07/30 02:52:51;;;;;;;2.00;1.57;;;24.70;49.90;;;;;;4990045;28;88937;-81
2022/07/30 02:55:17;;;;;;;1.67;1.50;;;24.70;49.90;;;;;;5014793;28;86821;-81
2022/07/30 02:57:45;;;;;;;2.28;1.65;;;24.70;49.90;;;;;;5031704;28;86313;-81
2022/07/30 03:00:11;;;;;;;2.25;1.67;;;24.70;49.90;;;;;;5032746;28;85916;-81
2022/07/30 03:02:38;;;;;;;2.58;1.65;;;24.70;50.00;;;;;;5031613;27;87585;-81
2022/07/30 03:05:06;;;;;;;3.17;1.60;;;24.70;50.00;;;;;;5031577;28;86618;-81
2022/07/30 03:07:34;;;;;;;1.60;1.50;;;24.70;50.00;;;;;;5031009;28;86169;-82
2022/07/30 03:10:00;;;;;;;1.70;1.50;;;24.70;50.10;;;;;;5030541;28;86596;-81
2022/07/30 03:12:30;;;;;;;1.50;1.40;;;24.70;50.10;;;;;;5029457;28;86304;-81
2022/07/30 03:14:56;;;;;;;1.60;1.50;;;24.60;50.00;;;;;;5029891;28;86539;-80
2022/07/30 03:17:24;;;;;;;1.40;1.30;;;24.60;50.10;;;;;;5029688;28;85976;-81
2022/07/30 03:19:52;;;;;;;1.70;1.60;;;24.60;50.20;;;;;;5032257;28;86182;-81
2022/07/30 03:22:20;;;;;;;1.45;1.35;;;24.60;50.30;;;;;;5029336;28;87413;-81
2022/07/30 03:24:47;;;;;;;2.03;1.67;;;24.60;50.30;;;;;;5030806;28;87093;-81
2022/07/30 03:27:15;;;;;;;2.55;1.90;;;24.60;50.20;;;;;;5032127;28;85617;-81
2022/07/30 03:29:41;;;;;;;1.63;1.52;;;24.60;50.30;;;;;;5029979;28;85769;-81
2022/07/30 03:32:09;;;;;;;1.58;1.48;;;24.60;50.20;;;;;;5032727;28;86103;-81
2022/07/30 03:34:35;;;;;;;1.80;1.48;;;24.60;50.30;;;;;;5030700;28;88405;-81
2022/07/30 03:37:05;;;;;;;1.75;1.63;;;24.60;49.80;;;;;;5032488;28;86000;-81
2022/07/30 03:39:34;;;;;;;2.15;1.80;;;24.60;50.30;;;;;;5030110;28;85721;-81
2022/07/30 03:42:01;;;;;;;1.60;1.50;;;24.60;50.30;;;;;;5029366;27;86082;-81
2022/07/30 03:44:28;;;;;;;1.63;1.50;;;24.60;50.30;;;;;;5027375;27;87552;-81
2022/07/30 03:46:56;;;;;;;2.75;1.67;;;24.60;50.30;;;;;;5026790;28;87102;-81
2022/07/30 03:49:24;;;;;;;2.00;1.60;;;24.60;50.20;;;;;;5042927;27;86002;-81
2022/07/30 03:51:52;;;;;;;1.60;1.50;;;24.60;50.40;;;;;;5027907;28;88479;-81
2022/07/30 03:54:18;;;;;;;1.70;1.60;;;24.60;50.40;;;;;;5030170;28;88280;-81
2022/07/30 03:56:44;;;;;;;1.60;1.50;;;24.60;50.50;;;;;;5028436;28;85721;-81
2022/07/30 03:59:11;;;;;;;1.50;1.40;;;24.60;50.50;;;;;;5030348;28;85874;-81
2022/07/30 04:01:37;;;;;;;1.40;1.30;;;24.60;50.90;;;;;;5028570;28;87546;-81
2022/07/30 04:04:07;;;;;;;1.77;1.38;;;24.60;50.80;;;;;;5030387;28;85943;-81
2022/07/30 04:06:39;;;;;;;2.53;1.50;;;24.60;50.80;;;;;;5019536;28;85961;-80
2022/07/30 04:09:09;;;;;;;1.70;1.45;;;24.60;50.90;;;;;;5027109;28;85804;-81
2022/07/30 04:11:35;;;;;;;1.50;1.40;;;24.60;51.00;;;;;;5028503;28;90018;-81
2022/07/30 04:14:01;;;;;;;2.10;1.40;;;24.60;50.90;;;;;;5027474;28;88630;-80
2022/07/30 04:16:53;;;;;;;1.40;1.30;;;24.60;50.90;;;;;;5026999;28;86629;-81
2022/07/30 04:19:27;;;;;;;1.60;1.50;;;24.60;50.90;;;;;;5030261;28;86008;-81
2022/07/30 04:21:54;;;;;;;1.50;1.40;;;24.50;50.90;;;;;;5029532;28;86375;-81
2022/07/30 04:24:20;;;;;;;1.60;1.20;;;24.50;50.90;;;;;;5028749;27;87030;-81
2022/07/30 04:26:47;;;;;;;1.48;1.38;;;24.50;50.90;;;;;;5029467;28;85657;-81
2022/07/30 04:29:13;;;;;;;1.33;1.20;;;24.50;51.00;;;;;;5028852;28;86345;-81
2022/07/30 04:31:39;;;;;;;2.08;1.50;;;24.50;50.90;;;;;;5031701;28;86016;-81
2022/07/30 04:34:05;;;;;;;1.48;1.30;;;24.50;50.90;;;;;;5030066;27;86440;-80
2022/07/30 04:36:32;;;;;;;1.52;1.42;;;24.50;50.90;;;;;;5029559;28;85846;-81
2022/07/30 04:38:58;;;;;;;1.50;1.40;;;24.60;51.20;;;;;;5029272;28;86158;-81
2022/07/30 04:41:26;;;;;;;1.60;1.42;;;24.60;51.00;;;;;;5029803;28;86844;-81
2022/07/30 04:43:52;;;;;;;1.60;1.40;;;24.60;50.90;;;;;;5029200;28;86286;-81
2022/07/30 04:46:18;;;;;;;1.63;1.45;;;24.50;50.90;;;;;;5029706;28;86084;-81
2022/07/30 04:48:44;;;;;;;1.75;1.50;;;24.50;51.10;;;;;;5029359;28;86320;-81
2022/07/30 04:51:30;;;;;;;1.80;1.70;;;24.50;51.20;;;;;;5031942;28;86929;-81
2022/07/30 04:53:57;;;;;;;1.48;1.38;;;24.50;51.10;;;;;;5029671;28;86380;-81
2022/07/30 04:56:24;;;;;;;1.75;1.35;;;24.50;51.10;;;;;;5031510;28;85797;-81
2022/07/30 04:58:51;;;;;;;1.85;1.60;;;24.50;51.10;;;;;;5030098;28;86272;-81
2022/07/30 05:01:24;;;;;;;2.40;1.40;;;24.50;51.10;;;;;;5028145;28;87481;-81
2022/07/30 05:04:02;;;;;;;1.48;1.38;;;24.50;51.20;;;;;;5031313;28;86842;-80
2022/07/30 05:06:29;;;;;;;1.60;1.50;;;24.50;51.10;;;;;;5028140;28;85650;-81
2022/07/30 05:08:56;;;;;;;1.65;1.55;;;24.50;51.20;;;;;;5031188;28;85822;-80
2022/07/30 05:11:21;;;;;;;1.60;1.50;;;24.50;51.20;;;;;;5028223;28;87492;-81
2022/07/30 05:13:48;;;;;;;1.40;1.30;;;24.50;51.20;;;;;;5031174;28;85925;-81
2022/07/30 05:16:14;;;;;;;1.50;1.40;;;24.50;51.20;;;;;;5031822;27;85800;-81
2022/07/30 05:18:39;;;;;;;1.60;1.30;;;24.50;51.40;;;;;;5029877;27;86260;-81
2022/07/30 05:21:05;;;;;;;1.65;1.55;;;24.50;51.30;;;;;;5028501;28;89271;-81
2022/07/30 05:23:31;;;;;;;1.35;1.25;;;24.50;51.10;;;;;;5027974;28;86298;-80
2022/07/30 05:25:57;;;;;;;1.50;1.40;;;24.50;51.50;;;;;;5027709;28;85710;-81
2022/07/30 05:28:25;;;;;;;1.40;1.30;;;24.60;51.20;;;;;;5028853;28;85709;-81
2022/07/30 05:30:51;;;;;;;2.25;1.48;;;24.60;51.10;;;;;;5025163;28;88956;-81
2022/07/30 05:33:17;;;;;;;1.98;1.50;;;24.50;50.90;;;;;;5029708;28;86405;-81
2022/07/30 05:35:42;;;;;;;1.75;1.45;;;24.60;50.90;;;;;;5028600;28;85832;-81
2022/07/30 05:38:08;;;;;;;1.50;1.40;;;24.60;51.10;;;;;;5029859;28;86150;-81
2022/07/30 05:40:34;;;;;;;1.58;1.42;;;24.60;51.00;;;;;;5029447;28;87430;-81
2022/07/30 05:42:59;;;;;;;3.35;1.52;;;24.60;51.00;;;;;;5030570;28;88029;-81
2022/07/30 05:45:25;;;;;;;1.25;1.15;;;24.60;51.10;;;;;;5026789;28;86200;-81
2022/07/30 05:47:51;;;;;;;1.67;1.58;;;24.60;51.10;;;;;;5026594;28;85705;-80
2022/07/30 05:50:17;;;;;;;2.58;1.35;;;24.60;51.10;;;;;;5028856;28;86476;-81
2022/07/30 05:52:42;;;;;;;1.60;1.50;;;24.60;51.10;;;;;;5028334;28;86793;-81
2022/07/30 05:55:08;;;;;;;1.52;1.40;;;24.60;51.10;;;;;;5028062;28;86563;-81
2022/07/30 05:57:35;;;;;;;1.50;1.40;;;24.60;51.00;;;;;;5024889;28;86638;-81
2022/07/30 06:00:03;;;;;;;1.65;1.30;;;24.60;51.20;;;;;;5060191;27;88912;-81
2022/07/30 06:02:28;;;;;;;2.28;1.70;;;24.60;51.20;;;;;;5029284;28;86702;-80
2022/07/30 06:04:54;;;;;;;1.85;1.50;;;24.60;51.10;;;;;;5029269;28;85712;-81
2022/07/30 06:07:19;;;;;;;1.90;1.70;;;24.60;51.20;;;;;;5027234;28;85862;-80
2022/07/30 06:09:45;;;;;;;1.65;1.55;;;24.60;51.20;;;;;;5027441;28;87109;-81
2022/07/30 06:12:11;;;;;;;1.60;1.50;;;24.60;51.30;;;;;;5031640;28;86462;-80
2022/07/30 06:14:36;;;;;;;3.25;1.88;;;24.60;51.20;;;;;;5025767;28;86276;-80
2022/07/30 06:17:02;;;;;;;5.95;4.43;;;24.70;51.30;;;;;;5025853;28;85624;-80
2022/07/30 06:19:27;;;;;;;19.23;10.18;;;24.70;52.70;;;;;;5023169;28;85892;-80
2022/07/30 06:21:53;;;;;;;68.47;24.40;;;24.60;53.40;;;;;;5023476;28;86753;-80
2022/07/30 06:24:19;;;;;;;133.30;40.25;;;24.50;53.60;;;;;;5027646;28;85673;-80
2022/07/30 06:26:44;;;;;;;87.75;28.52;;;24.50;54.30;;;;;;5021333;28;86247;-80
2022/07/30 06:29:10;;;;;;;81.00;25.30;;;24.50;54.60;;;;;;5025857;28;87231;-80
2022/07/30 06:31:37;;;;;;;49.00;17.65;;;24.40;55.00;;;;;;5024716;28;89388;-80
2022/07/30 06:34:03;;;;;;;48.92;17.08;;;24.40;55.10;;;;;;5029001;28;86287;-80
2022/07/30 06:36:29;;;;;;;40.35;14.18;;;24.50;55.20;;;;;;5027723;28;85817;-80
2022/07/30 06:38:55;;;;;;;28.38;13.13;;;24.40;55.30;;;;;;5031271;28;86134;-82
2022/07/30 06:41:20;;;;;;;26.98;13.20;;;24.40;55.50;;;;;;5028858;28;85745;-83
2022/07/30 06:43:46;;;;;;;21.98;12.40;;;24.40;55.70;;;;;;5025163;27;85710;-81
2022/07/30 06:46:11;;;;;;;22.00;10.65;;;24.40;55.90;;;;;;5024670;28;85751;-81
2022/07/30 06:48:37;;;;;;;19.65;10.80;;;24.40;55.60;;;;;;5025255;28;86976;-80
2022/07/30 06:51:03;;;;;;;16.13;10.32;;;24.30;55.80;;;;;;5028824;28;86864;-81
2022/07/30 06:53:28;;;;;;;17.00;10.57;;;24.30;55.90;;;;;;5024077;28;86303;-81
2022/07/30 06:55:54;;;;;;;17.67;9.88;;;24.30;55.60;;;;;;5026986;28;86064;-80
2022/07/30 06:58:20;;;;;;;17.52;9.10;;;24.30;55.90;;;;;;5029672;28;86722;-81
2022/07/30 07:00:45;;;;;;;21.95;9.13;;;24.30;55.90;;;;;;5028172;28;87369;-81
2022/07/30 07:03:11;;;;;;;13.32;9.07;;;24.30;56.10;;;;;;5030471;28;85634;-81
2022/07/30 07:05:37;;;;;;;16.88;8.65;;;24.30;56.00;;;;;;5030799;28;86648;-81
2022/07/30 07:08:03;;;;;;;14.93;8.32;;;24.30;55.80;;;;;;5027531;27;86362;-81
2022/07/30 07:10:28;;;;;;;15.23;8.15;;;24.40;55.70;;;;;;5026054;28;86016;-81
2022/07/30 07:12:54;;;;;;;18.45;8.80;;;24.40;55.90;;;;;;5028855;28;85570;-81
2022/07/30 07:15:21;;;;;;;20.75;9.68;;;24.50;56.30;;;;;;5030164;28;85638;-83
2022/07/30 07:17:46;;;;;;;24.85;8.27;;;24.40;56.30;;;;;;5029259;28;87017;-81
2022/07/30 07:20:12;;;;;;;23.58;7.70;;;24.50;56.20;;;;;;5028341;28;86373;-80
2022/07/30 07:22:38;;;;;;;13.95;7.78;;;24.50;56.10;;;;;;5028409;28;86486;-80
2022/07/30 07:25:04;;;;;;;14.10;6.38;;;24.50;56.00;;;;;;5027967;28;85553;-81
2022/07/30 07:27:30;;;;;;;79.13;19.17;;;24.60;55.80;;;;;;5025582;28;89098;-81
2022/07/30 07:29:56;;;;;;;95.15;20.95;;;24.50;56.30;;;;;;5029275;28;86561;-81
2022/07/30 07:32:21;;;;;;;40.78;10.25;;;24.50;55.70;;;;;;5025880;28;86006;-81
2022/07/30 07:34:47;;;;;;;43.13;13.15;;;24.50;55.70;;;;;;5031041;28;85831;-81
2022/07/30 07:37:14;;;;;;;20.00;6.05;;;24.50;55.50;;;;;;5023343;28;85871;-81
2022/07/30 07:39:40;;;;;;;39.30;10.80;;;24.50;55.50;;;;;;5027518;28;86118;-81
2022/07/30 07:42:06;;;;;;;22.83;8.13;;;24.60;55.50;;;;;;5028628;28;85800;-81
2022/07/30 07:44:31;;;;;;;31.35;8.52;;;24.60;55.30;;;;;;5028612;27;85630;-81
2022/07/30 07:46:57;;;;;;;30.85;10.40;;;24.60;55.20;;;;;;5027946;28;86875;-80
2022/07/30 07:49:22;;;;;;;29.50;8.57;;;24.60;55.20;;;;;;5023844;28;86728;-80
2022/07/30 07:51:48;;;;;;;33.35;10.18;;;24.70;55.10;;;;;;5026415;28;85822;-81
2022/07/30 07:54:14;;;;;;;35.88;11.35;;;24.70;55.00;;;;;;5024670;28;85741;-80
2022/07/30 07:56:39;;;;;;;39.80;12.00;;;24.70;54.80;;;;;;5025686;28;85921;-81
2022/07/30 07:59:05;;;;;;;37.30;10.88;;;24.70;54.40;;;;;;5023765;28;85984;-80
2022/07/30 08:01:31;;;;;;;38.63;12.52;;;24.70;54.20;;;;;;5026224;28;85806;-80
2022/07/30 08:03:56;;;;;;;42.10;11.05;;;24.70;53.90;;;;;;5027340;28;86620;-80
2022/07/30 08:06:22;;;;;;;31.55;9.88;;;24.70;53.60;;;;;;5028645;28;86764;-80
2022/07/30 08:08:47;;;;;;;44.22;12.35;;;24.80;53.60;;;;;;5024231;28;86878;-80
2022/07/30 08:11:13;;;;;;;32.67;11.07;;;24.80;53.60;;;;;;5026835;28;86709;-81
2022/07/30 08:13:39;;;;;;;35.83;11.43;;;24.80;53.60;;;;;;5026220;28;86594;-81
2022/07/30 08:16:04;;;;;;;36.50;10.85;;;24.80;53.50;;;;;;5027046;28;86471;-80
2022/07/30 08:18:30;;;;;;;36.70;12.43;;;24.80;53.40;;;;;;5008352;28;87563;-81
2022/07/30 08:20:56;;;;;;;39.08;11.38;;;24.90;53.20;;;;;;5026328;28;85684;-81
2022/07/30 08:23:23;;;;;;;30.33;10.27;;;24.80;53.20;;;;;;5027621;28;86148;-80
2022/07/30 08:25:48;;;;;;;36.33;10.52;;;24.90;53.00;;;;;;5024338;27;87026;-80
2022/07/30 08:28:14;;;;;;;30.13;10.20;;;24.80;53.10;;;;;;5023443;28;85769;-80
2022/07/30 08:30:39;;;;;;;30.77;9.82;;;24.80;52.70;;;;;;5019546;27;86334;-80
2022/07/30 08:33:05;;;;;;;34.55;10.07;;;24.90;52.90;;;;;;5026973;28;86643;-80
2022/07/30 08:35:31;;;;;;;24.48;9.48;;;24.90;52.80;;;;;;5022766;28;88164;-81
2022/07/30 08:37:56;;;;;;;30.10;9.77;;;24.90;52.80;;;;;;5028618;28;86618;-81
2022/07/30 08:40:25;;;;;;;24.52;9.25;;;24.90;52.80;;;;;;5026238;28;85662;-81
2022/07/30 08:42:52;;;;;;;24.05;9.13;;;24.80;52.50;;;;;;5024767;28;85821;-81
2022/07/30 08:45:18;;;;;;;23.85;9.70;;;24.90;52.30;;;;;;5026256;28;86364;-80
2022/07/30 08:47:45;;;;;;;22.25;9.35;;;24.90;52.30;;;;;;5028634;28;86597;-81
2022/07/30 08:50:11;;;;;;;29.23;10.00;;;24.90;52.50;;;;;;5029200;28;86043;-80
2022/07/30 08:52:37;;;;;;;25.42;7.88;;;24.80;52.40;;;;;;5023413;28;85716;-81
2022/07/30 08:55:07;;;;;;;23.25;7.97;;;24.90;52.10;;;;;;5026232;27;85843;-80
2022/07/30 08:57:34;;;;;;;19.45;8.25;;;24.90;52.10;;;;;;5059750;27;88832;-80
2022/07/30 09:00:00;;;;;;;27.17;7.90;;;24.90;51.90;;;;;;5024894;28;86179;-81
2022/07/30 09:02:28;;;;;;;19.70;8.43;;;24.90;51.90;;;;;;5026568;28;86238;-81
2022/07/30 09:04:54;;;;;;;23.80;8.17;;;24.90;52.00;;;;;;5024236;28;86116;-80
2022/07/30 09:07:20;;;;;;;22.98;8.25;;;24.80;52.10;;;;;;5026654;28;88310;-81
2022/07/30 09:09:45;;;;;;;20.50;8.27;;;24.80;52.30;;;;;;5026671;28;86749;-80
2022/07/30 09:12:34;;;;;;;20.67;7.15;;;24.80;52.30;;;;;;5024825;28;85761;-80
2022/07/30 09:15:06;;;;;;;20.05;6.85;;;24.80;52.20;;;;;;5022968;28;87428;-80
2022/07/30 09:17:53;;;;;;;19.52;7.60;;;24.90;52.20;;;;;;5025644;28;87054;-80
2022/07/30 09:20:24;;;;;;;18.17;7.95;;;24.80;52.10;;;;;;5023987;28;86025;-81
2022/07/30 09:22:54;;;;;;;21.13;7.95;;;24.80;52.00;;;;;;5029419;28;86474;-80
2022/07/30 09:25:44;;;;;;;21.05;7.22;;;24.80;51.90;;;;;;5022373;28;86807;-80
2022/07/30 09:28:10;;;;;;;17.17;6.95;;;24.80;51.60;;;;;;5023205;28;86449;-80
2022/07/30 09:30:50;;;;;;;18.60;6.55;;;24.80;51.70;;;;;;5025424;28;85709;-80
2022/07/30 09:33:35;;;;;;;18.73;6.57;;;24.90;51.50;;;;;;5027434;28;86360;-81
2022/07/30 09:36:01;;;;;;;15.77;6.63;;;24.80;51.50;;;;;;5023671;28;87634;-81
2022/07/30 09:38:27;;;;;;;19.05;7.10;;;24.80;51.20;;;;;;5024070;28;88558;-80
2022/07/30 09:40:54;;;;;;;17.27;6.88;;;24.90;51.50;;;;;;5025542;28;86262;-80
2022/07/30 09:43:20;;;;;;;15.30;6.45;;;24.90;51.50;;;;;;5021689;28;86646;-80
2022/07/30 09:45:57;;;;;;;18.95;7.18;;;24.80;51.40;;;;;;5024197;28;87398;-81
2022/07/30 09:48:25;;;;;;;21.25;7.10;;;24.90;51.30;;;;;;5025057;28;87243;-81
2022/07/30 09:50:53;;;;;;;16.10;6.20;;;24.90;51.40;;;;;;5025234;28;85639;-80
2022/07/30 09:53:21;;;;;;;20.48;6.95;;;24.90;51.20;;;;;;5027401;28;85722;-81
2022/07/30 09:55:47;;;;;;;41.60;12.32;;;24.90;51.10;;;;;;5024452;28;85696;-81
2022/07/30 09:58:12;;;;;;;49.55;13.27;;;25.00;51.50;;;;;;5025775;28;87189;-81
2022/07/30 10:00:39;;;;;;;42.38;12.10;;;25.00;51.30;;;;;;5026516;28;86523;-81
2022/07/30 10:03:24;;;;;;;49.88;13.55;;;25.00;51.00;;;;;;5027205;28;85998;-80
2022/07/30 10:05:50;;;;;;;46.92;12.48;;;25.00;51.20;;;;;;5025391;28;87495;-80
2022/07/30 10:08:16;;;;;;;45.58;11.90;;;25.00;51.30;;;;;;5024336;28;87030;-80
2022/07/30 10:10:42;;;;;;;35.47;11.18;;;25.00;51.30;;;;;;5028266;28;86385;-81
2022/07/30 10:13:08;;;;;;;39.67;11.15;;;25.00;51.30;;;;;;5032324;28;86033;-81
2022/07/30 10:15:35;;;;;;;41.53;11.85;;;25.00;51.40;;;;;;5030095;28;86222;-81
2022/07/30 10:18:04;;;;;;;35.40;10.68;;;25.10;51.60;;;;;;5025018;27;86415;-80
2022/07/30 10:20:30;;;;;;;30.07;9.20;;;25.00;51.80;;;;;;5026764;28;85716;-81
2022/07/30 10:22:56;;;;;;;25.20;7.93;;;25.00;52.20;;;;;;5025685;28;85801;-81
2022/07/30 10:25:23;;;;;;;26.15;7.05;;;25.00;52.20;;;;;;5027272;28;87472;-81
2022/07/30 10:27:50;;;;;;;21.17;6.78;;;25.10;52.30;;;;;;5030139;27;87842;-80
2022/07/30 10:30:16;;;;;;;27.10;6.97;;;25.10;52.10;;;;;;5028953;28;85816;-82
2022/07/30 10:32:44;;;;;;;17.77;6.07;;;25.10;51.90;;;;;;5029425;28;86335;-81
2022/07/30 10:35:10;;;;;;;21.27;5.68;;;25.20;52.50;;;;;;5031353;28;87142;-81
2022/07/30 10:37:39;;;;;;;24.73;6.40;;;25.20;52.40;;;;;;5032031;28;86410;-81
2022/07/30 10:40:17;;;;;;;16.40;6.05;;;25.20;52.30;;;;;;5028500;28;85700;-81
2022/07/30 10:42:54;;;;;;;17.10;5.72;;;25.20;52.00;;;;;;5026709;28;85917;-80
2022/07/30 10:45:30;;;;;;;18.20;5.00;;;25.20;51.80;;;;;;5027265;28;89455;-80
2022/07/30 10:47:56;;;;;;;18.15;5.45;;;25.20;52.00;;;;;;5027120;28;86427;-80
2022/07/30 10:50:27;;;;;;;20.63;5.65;;;25.20;51.90;;;;;;5027873;28;85730;-80
2022/07/30 10:53:00;;;;;;;18.90;5.13;;;25.20;51.90;;;;;;5024779;28;85785;-81
2022/07/30 10:55:32;;;;;;;13.30;4.38;;;25.20;52.10;;;;;;5028565;27;88498;-80
2022/07/30 10:58:08;;;;;;;13.75;5.20;;;25.20;52.10;;;;;;5027272;28;86365;-80
2022/07/30 11:00:55;;;;;;;16.65;5.30;;;25.20;52.20;;;;;;5026377;28;85675;-80
2022/07/30 11:03:22;;;;;;;12.02;3.80;;;25.30;52.20;;;;;;4993048;28;86515;-80
2022/07/30 11:05:50;;;;;;;13.57;4.07;;;25.30;51.90;;;;;;4994603;28;87939;-80
2022/07/30 11:08:32;;;;;;;11.90;4.50;;;25.30;51.70;;;;;;4994123;28;86307;-79
2022/07/30 11:10:59;;;;;;;12.13;4.72;;;25.20;51.70;;;;;;4994806;28;86454;-80
2022/07/30 11:13:52;;;;;;;11.15;4.20;;;25.30;51.70;;;;;;4994356;28;86352;-80
2022/07/30 11:16:38;;;;;;;11.27;3.60;;;25.20;51.40;;;;;;4992624;28;86360;-80
2022/07/30 11:19:16;;;;;;;8.05;3.72;;;25.30;51.60;;;;;;4931545;28;86813;-80
2022/07/30 11:21:49;;;;;;;10.15;3.30;;;25.30;51.30;;;;;;4932192;28;86429;-80
2022/07/30 11:24:43;;;;;;;7.63;3.47;;;25.30;51.40;;;;;;4932569;28;86627;-80
2022/07/30 11:27:09;;;;;;;10.13;3.55;;;25.30;51.20;;;;;;4935342;28;86888;-81
2022/07/30 11:29:39;;;;;;;10.68;3.75;;;25.30;51.10;;;;;;4933785;28;86158;-79
2022/07/30 11:32:31;;;;;;;8.50;2.95;;;25.30;51.20;;;;;;4933982;28;85894;-81
2022/07/30 11:35:20;;;;;;;9.48;3.50;;;25.30;50.70;;;;;;4936839;28;86358;-80
2022/07/30 11:37:55;;;;;;;;;;;25.30;50.90;;;;;;4944751;28;88556;-80
2022/07/30 11:40:22;;;;;;;8.35;2.88;;;25.30;50.70;;;;;;4939326;28;86352;-80
2022/07/30 11:42:47;;;;;;;8.98;3.33;;;25.30;50.80;;;;;;4945480;28;86881;-80
2022/07/30 11:45:16;;;;;;;5.63;2.80;;;25.30;50.80;;;;;;4943328;28;86219;-81
2022/07/30 11:48:09;;;;;;;7.88;3.40;;;25.30;51.00;;;;;;4925829;28;91497;-82
2022/07/30 11:50:35;;;;;;;12.98;3.30;;;25.30;51.00;;;;;;4897532;28;86933;-82
2022/07/30 11:53:04;;;;;;;11.27;3.00;;;25.40;51.30;;;;;;4898015;28;85933;-81
2022/07/30 11:55:36;;;;;;;10.43;3.53;;;25.40;51.20;;;;;;4909360;28;86528;-80
2022/07/30 11:58:05;;;;;;;11.18;3.30;;;25.40;51.00;;;;;;4964794;28;87486;-81
2022/07/30 12:00:49;;;;;;;9.02;2.72;;;25.30;50.60;;;;;;4962471;28;88626;-81
2022/07/30 12:03:18;;;;;;;7.13;2.65;;;25.40;50.80;;;;;;4945934;28;86363;-81
2022/07/30 12:05:44;;;;;;;9.27;3.22;;;25.40;50.70;;;;;;4955004;28;86162;-80
2022/07/30 12:08:11;;;;;;;5.55;2.85;;;25.40;50.60;;;;;;4961705;28;86323;-81
2022/07/30 12:10:38;;;;;;;6.68;2.85;;;25.30;50.40;;;;;;4959418;28;86169;-80
2022/07/30 12:13:06;;;;;;;7.03;2.90;;;25.40;50.90;;;;;;4948737;28;86224;-81
2022/07/30 12:15:34;;;;;;;9.30;2.63;;;25.40;50.50;;;;;;4966358;28;86096;-81
2022/07/30 12:18:00;;;;;;;6.95;2.80;;;25.40;50.60;;;;;;4961887;28;86537;-81
2022/07/30 12:20:29;;;;;;;5.15;2.55;;;25.40;51.90;;;;;;4962019;28;87515;-82
2022/07/30 12:22:55;;;;;;;9.20;3.13;;;25.40;50.40;;;;;;4948463;28;86444;-82
2022/07/30 12:25:21;;;;;;;7.70;3.13;;;25.50;51.40;;;;;;4895960;28;85908;-81
2022/07/30 12:27:48;;;;;;;5.10;2.97;;;25.40;50.50;;;;;;4989179;28;88433;-82
2022/07/30 12:30:15;;;;;;;8.70;2.60;;;25.50;50.90;;;;;;5001565;28;86574;-81
2022/07/30 12:32:45;;;;;;;6.80;2.50;;;25.50;50.90;;;;;;5004752;28;86526;-81
2022/07/30 12:35:11;;;;;;;7.63;2.35;;;25.60;51.60;;;;;;5001968;28;85767;-81
2022/07/30 12:37:37;;;;;;;7.63;2.50;;;25.70;50.40;;;;;;5001050;28;86454;-81
2022/07/30 12:40:13;;;;;;;6.07;2.85;;;25.60;50.00;;;;;;5000943;28;86742;-81
2022/07/30 12:42:52;;;;;;;4.00;2.38;;;25.70;50.80;;;;;;5006365;28;85789;-81
2022/07/30 12:45:29;;;;;;;4.75;2.20;;;25.70;50.50;;;;;;5002861;28;85783;-81
2022/07/30 12:47:54;;;;;;;4.35;2.00;;;25.70;50.40;;;;;;5006669;28;86620;-81